sensor_id;sensor_type;location;lat;lon;timestamp;P1;durP1;ratioP1;P2;durP2;ratioP2
9306;SDS011;4691;47.612;7.610;2023-06-26T00:01:38;29.50;;;15.25;;
9306;SDS011;4691;47.612;7.610;2023-06-26T00:04:04;38.00;;;15.30;;
9306;SDS011;4691;47.612;7.610;2023-06-26T00:06:30;30.45;;;15.07;;
9306;SDS011;4691;47.612;7.610;2023-06-26T00:08:56;27.77;;;16.20;;
9306;SDS011;4691;47.612;7.610;2023-06-26T00:11:23;27.77;;;15.05;;
9306;SDS011;4691;47.612;7.610;2023-06-26T00:13:50;27.77;;;15.20;;
9306;SDS011;4691;47.612;7.610;2023-06-26T00:16:15;25.27;;;14.95;;
9306;SDS011;4691;47.612;7.610;2023-06-26T00:18:40;27.13;;;15.20;;
9306;SDS011;4691;47.612;7.610;2023-06-26T00:21:06;25.83;;;14.68;;
9306;SDS011;4691;47.612;7.610;2023-06-26T00:23:31;26.67;;;15.40;;
9306;SDS011;4691;47.612;7.610;2023-06-26T00:26:02;24.15;;;13.93;;
9306;SDS011;4691;47.612;7.610;2023-06-26T00:28:29;22.98;;;14.27;;
9306;SDS011;4691;47.612;7.610;2023-06-26T00:30:55;26.45;;;14.43;;
9306;SDS011;4691;47.612;7.610;2023-06-26T00:33:20;23.23;;;13.93;;
9306;SDS011;4691;47.612;7.610;2023-06-26T00:35:45;25.40;;;14.52;;
9306;SDS011;4691;47.612;7.610;2023-06-26T00:38:11;22.70;;;13.77;;
9306;SDS011;4691;47.612;7.610;2023-06-26T00:40:36;27.58;;;14.82;;
9306;SDS011;4691;47.612;7.610;2023-06-26T00:43:01;23.73;;;14.98;;
9306;SDS011;4691;47.612;7.610;2023-06-26T00:45:27;26.10;;;14.88;;
9306;SDS011;4691;47.612;7.610;2023-06-26T00:47:53;25.65;;;15.13;;
9306;SDS011;4691;47.612;7.610;2023-06-26T00:50:18;27.63;;;14.95;;
9306;SDS011;4691;47.612;7.610;2023-06-26T00:52:44;25.25;;;14.85;;
9306;SDS011;4691;47.612;7.610;2023-06-26T00:55:09;26.20;;;14.85;;
9306;SDS011;4691;47.612;7.610;2023-06-26T00:57:35;28.55;;;14.68;;
9306;SDS011;4691;47.612;7.610;2023-06-26T01:00:01;25.15;;;15.23;;
9306;SDS011;4691;47.612;7.610;2023-06-26T01:02:28;22.27;;;14.15;;
9306;SDS011;4691;47.612;7.610;2023-06-26T01:07:24;23.15;;;14.18;;
9306;SDS011;4691;47.612;7.610;2023-06-26T01:09:50;22.45;;;13.90;;
9306;SDS011;4691;47.612;7.610;2023-06-26T01:12:15;22.80;;;13.43;;
9306;SDS011;4691;47.612;7.610;2023-06-26T01:14:41;23.40;;;14.00;;
9306;SDS011;4691;47.612;7.610;2023-06-26T01:17:06;25.45;;;13.38;;
9306;SDS011;4691;47.612;7.610;2023-06-26T01:19:33;23.75;;;13.90;;
9306;SDS011;4691;47.612;7.610;2023-06-26T01:27:42;25.23;;;14.90;;
9306;SDS011;4691;47.612;7.610;2023-06-26T01:30:10;21.73;;;13.57;;
9306;SDS011;4691;47.612;7.610;2023-06-26T01:32:37;22.75;;;13.65;;
9306;SDS011;4691;47.612;7.610;2023-06-26T01:35:04;23.20;;;13.75;;
9306;SDS011;4691;47.612;7.610;2023-06-26T01:37:32;25.08;;;13.65;;
9306;SDS011;4691;47.612;7.610;2023-06-26T01:39:57;24.50;;;13.73;;
9306;SDS011;4691;47.612;7.610;2023-06-26T01:42:22;24.77;;;14.43;;
9306;SDS011;4691;47.612;7.610;2023-06-26T01:44:47;21.33;;;13.68;;
9306;SDS011;4691;47.612;7.610;2023-06-26T01:47:14;28.00;;;14.25;;
9306;SDS011;4691;47.612;7.610;2023-06-26T01:55:08;23.77;;;14.48;;
9306;SDS011;4691;47.612;7.610;2023-06-26T01:57:52;23.13;;;13.90;;
9306;SDS011;4691;47.612;7.610;2023-06-26T02:00:20;25.23;;;14.65;;
9306;SDS011;4691;47.612;7.610;2023-06-26T02:02:46;27.33;;;14.68;;
9306;SDS011;4691;47.612;7.610;2023-06-26T02:05:12;26.60;;;14.70;;
9306;SDS011;4691;47.612;7.610;2023-06-26T02:07:38;24.30;;;14.05;;
9306;SDS011;4691;47.612;7.610;2023-06-26T02:10:03;23.20;;;13.18;;
9306;SDS011;4691;47.612;7.610;2023-06-26T02:12:32;30.70;;;15.05;;
9306;SDS011;4691;47.612;7.610;2023-06-26T02:14:57;29.48;;;13.98;;
9306;SDS011;4691;47.612;7.610;2023-06-26T02:19:39;33.13;;;15.50;;
9306;SDS011;4691;47.612;7.610;2023-06-26T02:22:15;26.23;;;14.38;;
9306;SDS011;4691;47.612;7.610;2023-06-26T02:24:41;26.70;;;14.48;;
9306;SDS011;4691;47.612;7.610;2023-06-26T02:27:17;30.00;;;14.25;;
9306;SDS011;4691;47.612;7.610;2023-06-26T02:29:53;27.42;;;14.32;;
9306;SDS011;4691;47.612;7.610;2023-06-26T02:32:30;27.75;;;14.27;;
9306;SDS011;4691;47.612;7.610;2023-06-26T02:34:56;23.42;;;13.63;;
9306;SDS011;4691;47.612;7.610;2023-06-26T02:37:38;26.88;;;14.68;;
9306;SDS011;4691;47.612;7.610;2023-06-26T02:40:21;21.30;;;14.00;;
9306;SDS011;4691;47.612;7.610;2023-06-26T02:42:49;24.33;;;14.10;;
9306;SDS011;4691;47.612;7.610;2023-06-26T02:45:15;26.98;;;13.85;;
9306;SDS011;4691;47.612;7.610;2023-06-26T02:47:40;27.02;;;14.15;;
9306;SDS011;4691;47.612;7.610;2023-06-26T02:52:45;27.08;;;14.05;;
9306;SDS011;4691;47.612;7.610;2023-06-26T02:55:19;25.08;;;13.85;;
9306;SDS011;4691;47.612;7.610;2023-06-26T02:57:52;23.90;;;14.00;;
9306;SDS011;4691;47.612;7.610;2023-06-26T03:00:20;23.65;;;14.07;;
9306;SDS011;4691;47.612;7.610;2023-06-26T03:02:46;27.58;;;14.80;;
9306;SDS011;4691;47.612;7.610;2023-06-26T03:05:12;26.20;;;14.25;;
9306;SDS011;4691;47.612;7.610;2023-06-26T03:07:43;28.00;;;14.32;;
9306;SDS011;4691;47.612;7.610;2023-06-26T03:10:28;25.50;;;15.00;;
9306;SDS011;4691;47.612;7.610;2023-06-26T03:13:02;24.40;;;14.68;;
9306;SDS011;4691;47.612;7.610;2023-06-26T03:15:33;28.52;;;14.27;;
9306;SDS011;4691;47.612;7.610;2023-06-26T03:18:10;29.00;;;14.77;;
9306;SDS011;4691;47.612;7.610;2023-06-26T03:20:39;26.67;;;14.63;;
9306;SDS011;4691;47.612;7.610;2023-06-26T03:23:13;26.00;;;14.52;;
9306;SDS011;4691;47.612;7.610;2023-06-26T03:26:02;24.73;;;14.20;;
9306;SDS011;4691;47.612;7.610;2023-06-26T03:28:55;27.02;;;15.10;;
9306;SDS011;4691;47.612;7.610;2023-06-26T03:31:41;24.80;;;13.80;;
9306;SDS011;4691;47.612;7.610;2023-06-26T03:34:09;29.25;;;15.48;;
9306;SDS011;4691;47.612;7.610;2023-06-26T03:36:35;26.27;;;14.38;;
9306;SDS011;4691;47.612;7.610;2023-06-26T03:39:00;24.38;;;13.80;;
9306;SDS011;4691;47.612;7.610;2023-06-26T03:41:26;25.60;;;14.88;;
9306;SDS011;4691;47.612;7.610;2023-06-26T03:43:54;23.10;;;13.88;;
9306;SDS011;4691;47.612;7.610;2023-06-26T03:46:30;25.42;;;14.15;;
9306;SDS011;4691;47.612;7.610;2023-06-26T03:48:56;23.60;;;13.98;;
9306;SDS011;4691;47.612;7.610;2023-06-26T03:51:38;26.83;;;14.90;;
9306;SDS011;4691;47.612;7.610;2023-06-26T03:54:18;22.52;;;13.70;;
9306;SDS011;4691;47.612;7.610;2023-06-26T03:56:50;24.55;;;14.52;;
9306;SDS011;4691;47.612;7.610;2023-06-26T03:59:36;28.33;;;15.15;;
9306;SDS011;4691;47.612;7.610;2023-06-26T04:02:19;25.77;;;14.25;;
9306;SDS011;4691;47.612;7.610;2023-06-26T04:04:44;21.83;;;14.00;;
9306;SDS011;4691;47.612;7.610;2023-06-26T04:07:19;27.33;;;14.73;;
9306;SDS011;4691;47.612;7.610;2023-06-26T04:09:47;28.95;;;14.95;;
9306;SDS011;4691;47.612;7.610;2023-06-26T04:12:13;24.33;;;14.48;;
9306;SDS011;4691;47.612;7.610;2023-06-26T04:14:42;26.15;;;14.77;;
9306;SDS011;4691;47.612;7.610;2023-06-26T04:17:09;23.73;;;14.75;;
9306;SDS011;4691;47.612;7.610;2023-06-26T04:19:40;24.92;;;14.77;;
9306;SDS011;4691;47.612;7.610;2023-06-26T04:22:32;28.20;;;15.13;;
9306;SDS011;4691;47.612;7.610;2023-06-26T04:25:01;30.85;;;14.25;;
9306;SDS011;4691;47.612;7.610;2023-06-26T04:27:37;27.50;;;15.57;;
9306;SDS011;4691;47.612;7.610;2023-06-26T04:30:15;29.50;;;15.07;;
9306;SDS011;4691;47.612;7.610;2023-06-26T04:33:22;23.00;;;13.65;;
9306;SDS011;4691;47.612;7.610;2023-06-26T04:35:54;27.02;;;15.52;;
9306;SDS011;4691;47.612;7.610;2023-06-26T04:38:32;25.95;;;15.07;;
9306;SDS011;4691;47.612;7.610;2023-06-26T04:41:01;21.75;;;14.02;;
9306;SDS011;4691;47.612;7.610;2023-06-26T04:43:58;22.08;;;13.77;;
9306;SDS011;4691;47.612;7.610;2023-06-26T04:46:42;24.58;;;14.35;;
9306;SDS011;4691;47.612;7.610;2023-06-26T04:51:54;25.85;;;14.50;;
9306;SDS011;4691;47.612;7.610;2023-06-26T04:54:25;25.05;;;14.80;;
9306;SDS011;4691;47.612;7.610;2023-06-26T04:59:38;27.70;;;14.52;;
9306;SDS011;4691;47.612;7.610;2023-06-26T05:02:31;23.35;;;14.40;;
9306;SDS011;4691;47.612;7.610;2023-06-26T05:05:02;24.92;;;14.80;;
9306;SDS011;4691;47.612;7.610;2023-06-26T05:07:36;28.45;;;15.15;;
9306;SDS011;4691;47.612;7.610;2023-06-26T05:10:15;23.70;;;15.02;;
9306;SDS011;4691;47.612;7.610;2023-06-26T05:12:43;23.98;;;14.98;;
9306;SDS011;4691;47.612;7.610;2023-06-26T05:15:11;31.35;;;15.32;;
9306;SDS011;4691;47.612;7.610;2023-06-26T05:20:18;26.47;;;15.83;;
9306;SDS011;4691;47.612;7.610;2023-06-26T05:22:52;25.23;;;14.73;;
9306;SDS011;4691;47.612;7.610;2023-06-26T05:25:42;22.63;;;14.68;;
9306;SDS011;4691;47.612;7.610;2023-06-26T05:28:15;30.88;;;16.00;;
9306;SDS011;4691;47.612;7.610;2023-06-26T05:30:56;24.40;;;14.98;;
9306;SDS011;4691;47.612;7.610;2023-06-26T05:33:28;27.48;;;16.35;;
9306;SDS011;4691;47.612;7.610;2023-06-26T05:36:00;25.83;;;15.48;;
9306;SDS011;4691;47.612;7.610;2023-06-26T05:38:41;28.70;;;15.77;;
9306;SDS011;4691;47.612;7.610;2023-06-26T05:44:07;28.30;;;15.30;;
9306;SDS011;4691;47.612;7.610;2023-06-26T05:47:04;24.85;;;15.80;;
9306;SDS011;4691;47.612;7.610;2023-06-26T05:49:51;25.95;;;15.18;;
9306;SDS011;4691;47.612;7.610;2023-06-26T05:52:19;26.05;;;15.55;;
9306;SDS011;4691;47.612;7.610;2023-06-26T05:55:07;30.20;;;16.10;;
9306;SDS011;4691;47.612;7.610;2023-06-26T05:57:36;27.23;;;16.58;;
9306;SDS011;4691;47.612;7.610;2023-06-26T06:00:06;28.05;;;15.25;;
9306;SDS011;4691;47.612;7.610;2023-06-26T06:02:38;25.55;;;15.20;;
9306;SDS011;4691;47.612;7.610;2023-06-26T06:05:07;26.48;;;15.35;;
9306;SDS011;4691;47.612;7.610;2023-06-26T06:07:41;24.80;;;15.32;;
9306;SDS011;4691;47.612;7.610;2023-06-26T06:10:07;45.42;;;15.65;;
9306;SDS011;4691;47.612;7.610;2023-06-26T06:12:33;22.20;;;14.38;;
9306;SDS011;4691;47.612;7.610;2023-06-26T06:14:58;24.20;;;14.88;;
9306;SDS011;4691;47.612;7.610;2023-06-26T06:17:35;27.30;;;16.05;;
9306;SDS011;4691;47.612;7.610;2023-06-26T06:20:07;25.50;;;15.23;;
9306;SDS011;4691;47.612;7.610;2023-06-26T06:22:50;26.10;;;14.20;;
9306;SDS011;4691;47.612;7.610;2023-06-26T06:25:32;24.85;;;14.48;;
9306;SDS011;4691;47.612;7.610;2023-06-26T06:28:01;26.15;;;13.90;;
9306;SDS011;4691;47.612;7.610;2023-06-26T06:30:38;21.95;;;14.15;;
9306;SDS011;4691;47.612;7.610;2023-06-26T06:33:04;22.90;;;15.00;;
9306;SDS011;4691;47.612;7.610;2023-06-26T06:36:01;25.60;;;14.43;;
9306;SDS011;4691;47.612;7.610;2023-06-26T06:38:32;27.08;;;14.80;;
9306;SDS011;4691;47.612;7.610;2023-06-26T06:41:06;24.88;;;14.50;;
9306;SDS011;4691;47.612;7.610;2023-06-26T06:44:00;25.38;;;14.38;;
9306;SDS011;4691;47.612;7.610;2023-06-26T06:46:26;23.15;;;14.93;;
9306;SDS011;4691;47.612;7.610;2023-06-26T06:51:46;25.17;;;14.73;;
9306;SDS011;4691;47.612;7.610;2023-06-26T06:54:20;24.50;;;15.02;;
9306;SDS011;4691;47.612;7.610;2023-06-26T06:57:09;25.00;;;13.70;;
9306;SDS011;4691;47.612;7.610;2023-06-26T07:00:02;21.63;;;14.10;;
9306;SDS011;4691;47.612;7.610;2023-06-26T07:02:39;25.38;;;13.73;;
9306;SDS011;4691;47.612;7.610;2023-06-26T07:08:09;20.77;;;13.35;;
9306;SDS011;4691;47.612;7.610;2023-06-26T07:10:35;20.35;;;13.23;;
9306;SDS011;4691;47.612;7.610;2023-06-26T07:13:01;20.60;;;14.00;;
9306;SDS011;4691;47.612;7.610;2023-06-26T07:15:30;25.40;;;14.32;;
9306;SDS011;4691;47.612;7.610;2023-06-26T07:18:01;23.38;;;14.00;;
9306;SDS011;4691;47.612;7.610;2023-06-26T07:20:27;26.45;;;14.48;;
9306;SDS011;4691;47.612;7.610;2023-06-26T07:22:59;27.00;;;14.38;;
9306;SDS011;4691;47.612;7.610;2023-06-26T07:25:35;23.65;;;14.88;;
9306;SDS011;4691;47.612;7.610;2023-06-26T07:28:12;26.23;;;15.23;;
9306;SDS011;4691;47.612;7.610;2023-06-26T07:30:38;24.27;;;14.80;;
9306;SDS011;4691;47.612;7.610;2023-06-26T07:33:09;29.37;;;14.43;;
9306;SDS011;4691;47.612;7.610;2023-06-26T07:35:34;23.70;;;14.57;;
9306;SDS011;4691;47.612;7.610;2023-06-26T07:38:12;23.80;;;14.07;;
9306;SDS011;4691;47.612;7.610;2023-06-26T07:40:37;28.48;;;14.85;;
9306;SDS011;4691;47.612;7.610;2023-06-26T07:43:05;28.85;;;15.60;;
9306;SDS011;4691;47.612;7.610;2023-06-26T07:45:30;23.13;;;15.50;;
9306;SDS011;4691;47.612;7.610;2023-06-26T07:48:05;34.92;;;16.40;;
9306;SDS011;4691;47.612;7.610;2023-06-26T07:53:05;23.80;;;14.73;;
9306;SDS011;4691;47.612;7.610;2023-06-26T07:55:31;27.63;;;15.60;;
9306;SDS011;4691;47.612;7.610;2023-06-26T07:58:00;24.83;;;14.82;;
9306;SDS011;4691;47.612;7.610;2023-06-26T08:00:29;26.65;;;15.43;;
9306;SDS011;4691;47.612;7.610;2023-06-26T08:03:04;21.13;;;14.85;;
9306;SDS011;4691;47.612;7.610;2023-06-26T08:05:30;29.50;;;14.07;;
9306;SDS011;4691;47.612;7.610;2023-06-26T08:07:55;23.83;;;13.52;;
9306;SDS011;4691;47.612;7.610;2023-06-26T08:10:21;22.88;;;14.20;;
9306;SDS011;4691;47.612;7.610;2023-06-26T08:12:46;21.67;;;13.88;;
9306;SDS011;4691;47.612;7.610;2023-06-26T08:15:15;21.58;;;14.27;;
9306;SDS011;4691;47.612;7.610;2023-06-26T08:17:41;24.95;;;14.68;;
9306;SDS011;4691;47.612;7.610;2023-06-26T08:20:13;28.00;;;14.05;;
9306;SDS011;4691;47.612;7.610;2023-06-26T08:22:39;28.23;;;14.90;;
9306;SDS011;4691;47.612;7.610;2023-06-26T08:25:10;21.10;;;13.30;;
9306;SDS011;4691;47.612;7.610;2023-06-26T08:27:35;24.80;;;13.90;;
9306;SDS011;4691;47.612;7.610;2023-06-26T08:30:13;27.80;;;13.70;;
9306;SDS011;4691;47.612;7.610;2023-06-26T08:35:43;23.08;;;14.20;;
9306;SDS011;4691;47.612;7.610;2023-06-26T08:38:15;22.52;;;14.32;;
9306;SDS011;4691;47.612;7.610;2023-06-26T08:40:43;22.00;;;14.68;;
9306;SDS011;4691;47.612;7.610;2023-06-26T08:43:12;23.75;;;13.95;;
9306;SDS011;4691;47.612;7.610;2023-06-26T08:45:37;26.42;;;15.50;;
9306;SDS011;4691;47.612;7.610;2023-06-26T08:48:03;24.92;;;14.70;;
9306;SDS011;4691;47.612;7.610;2023-06-26T08:50:33;22.77;;;15.43;;
9306;SDS011;4691;47.612;7.610;2023-06-26T08:56:11;24.20;;;15.25;;
9306;SDS011;4691;47.612;7.610;2023-06-26T08:58:59;25.30;;;14.90;;
9306;SDS011;4691;47.612;7.610;2023-06-26T09:01:31;22.08;;;14.70;;
9306;SDS011;4691;47.612;7.610;2023-06-26T09:04:21;25.83;;;14.43;;
9306;SDS011;4691;47.612;7.610;2023-06-26T09:06:50;29.55;;;15.10;;
9306;SDS011;4691;47.612;7.610;2023-06-26T09:09:18;24.42;;;14.80;;
9306;SDS011;4691;47.612;7.610;2023-06-26T09:11:43;22.13;;;14.33;;
9306;SDS011;4691;47.612;7.610;2023-06-26T09:14:12;26.20;;;15.10;;
9306;SDS011;4691;47.612;7.610;2023-06-26T09:16:46;26.17;;;15.80;;
9306;SDS011;4691;47.612;7.610;2023-06-26T09:19:20;23.88;;;15.10;;
9306;SDS011;4691;47.612;7.610;2023-06-26T09:21:51;25.95;;;15.18;;
9306;SDS011;4691;47.612;7.610;2023-06-26T09:24:23;30.02;;;15.38;;
9306;SDS011;4691;47.612;7.610;2023-06-26T09:26:51;23.75;;;14.75;;
9306;SDS011;4691;47.612;7.610;2023-06-26T09:29:17;23.25;;;15.88;;
9306;SDS011;4691;47.612;7.610;2023-06-26T09:31:43;28.40;;;16.25;;
9306;SDS011;4691;47.612;7.610;2023-06-26T09:34:17;42.10;;;16.10;;
9306;SDS011;4691;47.612;7.610;2023-06-26T09:36:47;26.80;;;15.43;;
9306;SDS011;4691;47.612;7.610;2023-06-26T09:39:18;26.80;;;16.15;;
9306;SDS011;4691;47.612;7.610;2023-06-26T09:41:46;26.88;;;16.23;;
9306;SDS011;4691;47.612;7.610;2023-06-26T09:44:22;24.88;;;15.45;;
9306;SDS011;4691;47.612;7.610;2023-06-26T09:46:48;25.02;;;16.05;;
9306;SDS011;4691;47.612;7.610;2023-06-26T09:49:16;24.25;;;15.80;;
9306;SDS011;4691;47.612;7.610;2023-06-26T09:51:45;31.40;;;16.57;;
9306;SDS011;4691;47.612;7.610;2023-06-26T09:54:19;27.60;;;16.58;;
9306;SDS011;4691;47.612;7.610;2023-06-26T09:59:59;24.20;;;16.15;;
9306;SDS011;4691;47.612;7.610;2023-06-26T10:02:25;24.67;;;15.75;;
9306;SDS011;4691;47.612;7.610;2023-06-26T10:04:50;28.52;;;16.77;;
9306;SDS011;4691;47.612;7.610;2023-06-26T10:07:16;30.77;;;16.30;;
9306;SDS011;4691;47.612;7.610;2023-06-26T10:09:50;27.08;;;16.50;;
9306;SDS011;4691;47.612;7.610;2023-06-26T10:14:58;25.70;;;16.65;;
9306;SDS011;4691;47.612;7.610;2023-06-26T10:17:28;24.48;;;15.60;;
9306;SDS011;4691;47.612;7.610;2023-06-26T10:20:08;23.95;;;16.42;;
9306;SDS011;4691;47.612;7.610;2023-06-26T10:22:40;25.52;;;16.40;;
9306;SDS011;4691;47.612;7.610;2023-06-26T10:25:18;27.85;;;16.30;;
9306;SDS011;4691;47.612;7.610;2023-06-26T10:27:47;21.55;;;14.10;;
9306;SDS011;4691;47.612;7.610;2023-06-26T10:30:17;26.48;;;14.88;;
9306;SDS011;4691;47.612;7.610;2023-06-26T10:32:52;27.00;;;13.30;;
9306;SDS011;4691;47.612;7.610;2023-06-26T10:35:17;22.88;;;13.65;;
9306;SDS011;4691;47.612;7.610;2023-06-26T10:37:44;20.48;;;13.30;;
9306;SDS011;4691;47.612;7.610;2023-06-26T10:40:11;24.00;;;12.68;;
9306;SDS011;4691;47.612;7.610;2023-06-26T10:42:38;26.48;;;13.77;;
9306;SDS011;4691;47.612;7.610;2023-06-26T10:45:13;21.25;;;13.13;;
9306;SDS011;4691;47.612;7.610;2023-06-26T10:47:45;23.70;;;13.45;;
9306;SDS011;4691;47.612;7.610;2023-06-26T10:50:27;24.08;;;13.05;;
9306;SDS011;4691;47.612;7.610;2023-06-26T10:56:11;20.00;;;13.80;;
9306;SDS011;4691;47.612;7.610;2023-06-26T11:06:16;26.70;;;12.90;;
9306;SDS011;4691;47.612;7.610;2023-06-26T11:09:23;25.25;;;13.07;;
9306;SDS011;4691;47.612;7.610;2023-06-26T11:12:00;21.30;;;13.75;;
9306;SDS011;4691;47.612;7.610;2023-06-26T11:14:32;19.83;;;12.05;;
9306;SDS011;4691;47.612;7.610;2023-06-26T11:17:15;24.38;;;12.07;;
9306;SDS011;4691;47.612;7.610;2023-06-26T11:19:53;19.38;;;11.98;;
9306;SDS011;4691;47.612;7.610;2023-06-26T11:22:26;19.92;;;12.60;;
9306;SDS011;4691;47.612;7.610;2023-06-26T11:25:19;18.15;;;11.60;;
9306;SDS011;4691;47.612;7.610;2023-06-26T11:27:52;24.83;;;11.75;;
9306;SDS011;4691;47.612;7.610;2023-06-26T11:30:24;19.00;;;12.13;;
9306;SDS011;4691;47.612;7.610;2023-06-26T11:33:02;20.00;;;12.05;;
9306;SDS011;4691;47.612;7.610;2023-06-26T11:35:49;20.08;;;11.60;;
9306;SDS011;4691;47.612;7.610;2023-06-26T11:38:39;20.88;;;12.68;;
9306;SDS011;4691;47.612;7.610;2023-06-26T11:41:04;16.35;;;11.45;;
9306;SDS011;4691;47.612;7.610;2023-06-26T11:43:39;17.02;;;11.25;;
9306;SDS011;4691;47.612;7.610;2023-06-26T11:46:07;17.95;;;12.32;;
9306;SDS011;4691;47.612;7.610;2023-06-26T11:48:48;23.73;;;10.85;;
9306;SDS011;4691;47.612;7.610;2023-06-26T11:51:28;20.92;;;11.20;;
9306;SDS011;4691;47.612;7.610;2023-06-26T11:54:01;20.17;;;11.30;;
9306;SDS011;4691;47.612;7.610;2023-06-26T11:56:37;15.02;;;10.30;;
9306;SDS011;4691;47.612;7.610;2023-06-26T11:59:06;25.30;;;11.05;;
9306;SDS011;4691;47.612;7.610;2023-06-26T12:01:36;16.58;;;10.77;;
9306;SDS011;4691;47.612;7.610;2023-06-26T12:04:17;17.23;;;10.93;;
9306;SDS011;4691;47.612;7.610;2023-06-26T12:06:47;17.38;;;10.98;;
9306;SDS011;4691;47.612;7.610;2023-06-26T12:09:14;15.65;;;10.48;;
9306;SDS011;4691;47.612;7.610;2023-06-26T12:11:55;19.58;;;9.82;;
9306;SDS011;4691;47.612;7.610;2023-06-26T12:14:29;15.73;;;10.05;;
9306;SDS011;4691;47.612;7.610;2023-06-26T12:17:07;24.15;;;10.02;;
9306;SDS011;4691;47.612;7.610;2023-06-26T12:19:37;20.70;;;9.82;;
9306;SDS011;4691;47.612;7.610;2023-06-26T12:22:07;19.33;;;9.27;;
9306;SDS011;4691;47.612;7.610;2023-06-26T12:24:33;21.60;;;9.93;;
9306;SDS011;4691;47.612;7.610;2023-06-26T12:27:00;20.88;;;10.10;;
9306;SDS011;4691;47.612;7.610;2023-06-26T12:29:29;11.87;;;9.07;;
9306;SDS011;4691;47.612;7.610;2023-06-26T12:31:57;18.40;;;9.30;;
9306;SDS011;4691;47.612;7.610;2023-06-26T12:34:33;14.18;;;8.90;;
9306;SDS011;4691;47.612;7.610;2023-06-26T12:37:00;15.45;;;8.48;;
9306;SDS011;4691;47.612;7.610;2023-06-26T12:39:30;18.13;;;8.73;;
9306;SDS011;4691;47.612;7.610;2023-06-26T12:42:14;20.80;;;8.30;;
9306;SDS011;4691;47.612;7.610;2023-06-26T12:44:40;15.25;;;8.57;;
9306;SDS011;4691;47.612;7.610;2023-06-26T12:47:09;20.95;;;8.80;;
9306;SDS011;4691;47.612;7.610;2023-06-26T12:49:36;20.60;;;8.70;;
9306;SDS011;4691;47.612;7.610;2023-06-26T12:52:09;18.50;;;8.77;;
9306;SDS011;4691;47.612;7.610;2023-06-26T12:54:37;13.97;;;8.07;;
9306;SDS011;4691;47.612;7.610;2023-06-26T12:57:05;14.02;;;7.93;;
9306;SDS011;4691;47.612;7.610;2023-06-26T12:59:30;15.43;;;8.20;;
9306;SDS011;4691;47.612;7.610;2023-06-26T13:01:57;14.77;;;8.18;;
9306;SDS011;4691;47.612;7.610;2023-06-26T13:06:51;15.45;;;7.45;;
9306;SDS011;4691;47.612;7.610;2023-06-26T13:09:19;16.02;;;7.90;;
9306;SDS011;4691;47.612;7.610;2023-06-26T13:11:45;11.95;;;7.50;;
9306;SDS011;4691;47.612;7.610;2023-06-26T13:14:11;10.05;;;7.15;;
9306;SDS011;4691;47.612;7.610;2023-06-26T13:16:36;11.88;;;7.40;;
9306;SDS011;4691;47.612;7.610;2023-06-26T13:19:01;11.30;;;7.38;;
9306;SDS011;4691;47.612;7.610;2023-06-26T13:21:27;11.25;;;7.35;;
9306;SDS011;4691;47.612;7.610;2023-06-26T13:23:53;11.57;;;7.35;;
9306;SDS011;4691;47.612;7.610;2023-06-26T13:26:19;14.68;;;7.25;;
9306;SDS011;4691;47.612;7.610;2023-06-26T13:28:46;11.45;;;7.35;;
9306;SDS011;4691;47.612;7.610;2023-06-26T13:31:12;11.68;;;7.38;;
9306;SDS011;4691;47.612;7.610;2023-06-26T13:33:37;13.10;;;7.38;;
9306;SDS011;4691;47.612;7.610;2023-06-26T13:36:02;12.10;;;7.68;;
9306;SDS011;4691;47.612;7.610;2023-06-26T13:38:32;13.90;;;7.75;;
9306;SDS011;4691;47.612;7.610;2023-06-26T13:40:58;10.48;;;6.90;;
9306;SDS011;4691;47.612;7.610;2023-06-26T13:43:25;12.07;;;6.88;;
9306;SDS011;4691;47.612;7.610;2023-06-26T13:45:52;13.27;;;6.78;;
9306;SDS011;4691;47.612;7.610;2023-06-26T13:48:17;20.30;;;7.50;;
9306;SDS011;4691;47.612;7.610;2023-06-26T13:50:43;14.02;;;7.13;;
9306;SDS011;4691;47.612;7.610;2023-06-26T13:53:08;25.33;;;7.35;;
9306;SDS011;4691;47.612;7.610;2023-06-26T13:55:34;10.05;;;6.70;;
9306;SDS011;4691;47.612;7.610;2023-06-26T13:58:03;10.30;;;6.57;;
9306;SDS011;4691;47.612;7.610;2023-06-26T14:00:30;9.80;;;6.72;;
9306;SDS011;4691;47.612;7.610;2023-06-26T14:02:58;11.60;;;6.78;;
9306;SDS011;4691;47.612;7.610;2023-06-26T14:05:28;11.32;;;6.72;;
9306;SDS011;4691;47.612;7.610;2023-06-26T14:07:54;11.40;;;6.53;;
9306;SDS011;4691;47.612;7.610;2023-06-26T14:10:22;11.18;;;6.88;;
9306;SDS011;4691;47.612;7.610;2023-06-26T14:12:48;10.85;;;6.50;;
9306;SDS011;4691;47.612;7.610;2023-06-26T14:15:14;8.02;;;6.10;;
9306;SDS011;4691;47.612;7.610;2023-06-26T14:17:40;13.98;;;6.43;;
9306;SDS011;4691;47.612;7.610;2023-06-26T14:20:06;10.70;;;6.93;;
9306;SDS011;4691;47.612;7.610;2023-06-26T14:22:37;11.70;;;7.10;;
9306;SDS011;4691;47.612;7.610;2023-06-26T14:25:09;11.88;;;6.10;;
9306;SDS011;4691;47.612;7.610;2023-06-26T14:27:35;10.00;;;7.07;;
9306;SDS011;4691;47.612;7.610;2023-06-26T14:30:02;8.55;;;6.20;;
9306;SDS011;4691;47.612;7.610;2023-06-26T14:32:31;10.38;;;6.40;;
9306;SDS011;4691;47.612;7.610;2023-06-26T14:34:57;14.70;;;6.13;;
9306;SDS011;4691;47.612;7.610;2023-06-26T14:37:23;10.68;;;6.28;;
9306;SDS011;4691;47.612;7.610;2023-06-26T14:39:50;10.75;;;6.22;;
9306;SDS011;4691;47.612;7.610;2023-06-26T14:42:16;12.98;;;6.97;;
9306;SDS011;4691;47.612;7.610;2023-06-26T14:44:41;10.10;;;6.72;;
9306;SDS011;4691;47.612;7.610;2023-06-26T14:47:06;11.98;;;6.85;;
9306;SDS011;4691;47.612;7.610;2023-06-26T14:49:35;11.38;;;6.57;;
9306;SDS011;4691;47.612;7.610;2023-06-26T14:52:00;12.52;;;6.57;;
9306;SDS011;4691;47.612;7.610;2023-06-26T14:54:26;16.23;;;6.50;;
9306;SDS011;4691;47.612;7.610;2023-06-26T14:56:51;13.57;;;6.70;;
9306;SDS011;4691;47.612;7.610;2023-06-26T14:59:16;10.80;;;7.00;;
9306;SDS011;4691;47.612;7.610;2023-06-26T15:01:42;11.95;;;6.40;;
9306;SDS011;4691;47.612;7.610;2023-06-26T15:04:10;10.65;;;6.60;;
9306;SDS011;4691;47.612;7.610;2023-06-26T15:06:35;11.07;;;6.25;;
9306;SDS011;4691;47.612;7.610;2023-06-26T15:09:01;10.95;;;6.80;;
9306;SDS011;4691;47.612;7.610;2023-06-26T15:11:27;9.48;;;5.97;;
9306;SDS011;4691;47.612;7.610;2023-06-26T15:13:55;13.48;;;6.60;;
9306;SDS011;4691;47.612;7.610;2023-06-26T15:16:20;18.73;;;6.75;;
9306;SDS011;4691;47.612;7.610;2023-06-26T15:18:48;10.63;;;6.40;;
9306;SDS011;4691;47.612;7.610;2023-06-26T15:21:14;11.35;;;6.47;;
9306;SDS011;4691;47.612;7.610;2023-06-26T15:23:39;11.93;;;5.85;;
9306;SDS011;4691;47.612;7.610;2023-06-26T15:26:05;11.73;;;5.78;;
9306;SDS011;4691;47.612;7.610;2023-06-26T15:28:30;8.65;;;6.20;;
9306;SDS011;4691;47.612;7.610;2023-06-26T15:30:55;19.98;;;7.07;;
9306;SDS011;4691;47.612;7.610;2023-06-26T15:33:21;10.25;;;6.35;;
9306;SDS011;4691;47.612;7.610;2023-06-26T15:35:46;19.30;;;7.07;;
9306;SDS011;4691;47.612;7.610;2023-06-26T15:38:11;16.67;;;7.18;;
9306;SDS011;4691;47.612;7.610;2023-06-26T15:40:39;10.90;;;7.20;;
9306;SDS011;4691;47.612;7.610;2023-06-26T15:43:07;9.48;;;6.80;;
9306;SDS011;4691;47.612;7.610;2023-06-26T15:45:33;13.33;;;7.17;;
9306;SDS011;4691;47.612;7.610;2023-06-26T15:47:58;11.77;;;7.97;;
9306;SDS011;4691;47.612;7.610;2023-06-26T15:50:23;12.80;;;7.80;;
9306;SDS011;4691;47.612;7.610;2023-06-26T15:52:49;12.20;;;8.30;;
9306;SDS011;4691;47.612;7.610;2023-06-26T15:55:15;12.00;;;8.15;;
9306;SDS011;4691;47.612;7.610;2023-06-26T15:57:41;15.07;;;8.65;;
9306;SDS011;4691;47.612;7.610;2023-06-26T16:00:06;15.75;;;8.95;;
9306;SDS011;4691;47.612;7.610;2023-06-26T16:02:33;13.32;;;8.98;;
9306;SDS011;4691;47.612;7.610;2023-06-26T16:04:59;12.95;;;8.43;;
9306;SDS011;4691;47.612;7.610;2023-06-26T16:07:25;14.05;;;8.73;;
9306;SDS011;4691;47.612;7.610;2023-06-26T16:09:50;12.77;;;9.02;;
9306;SDS011;4691;47.612;7.610;2023-06-26T16:12:15;15.82;;;9.23;;
9306;SDS011;4691;47.612;7.610;2023-06-26T16:14:41;15.05;;;9.40;;